createdAt,value
2018-08-04T00:00:19.293Z,0
2018-08-04T00:01:20.691Z,0
2018-08-04T00:02:22.085Z,0
2018-08-04T00:03:23.482Z,0
2018-08-04T00:04:24.878Z,0
2018-08-04T00:05:26.275Z,0
2018-08-04T00:06:27.669Z,0
2018-08-04T00:07:29.066Z,0
2018-08-04T00:08:30.488Z,0
2018-08-04T00:09:31.859Z,0
2018-08-04T00:10:33.259Z,0
2018-08-04T00:11:34.660Z,0
2018-08-04T00:12:36.057Z,0
2018-08-04T00:13:37.449Z,0
2018-08-04T00:14:38.847Z,0
2018-08-04T00:15:40.247Z,0
2018-08-04T00:16:41.657Z,0
2018-08-04T00:17:43.050Z,0
2018-08-04T00:18:44.445Z,0
2018-08-04T00:19:45.837Z,0
2018-08-04T00:20:47.233Z,0
2018-08-04T00:21:48.692Z,0
2018-08-04T00:22:50.096Z,0
2018-08-04T00:23:51.490Z,0
2018-08-04T00:24:52.887Z,0
2018-08-04T00:25:54.315Z,0
2018-08-04T00:26:55.711Z,0
2018-08-04T00:27:57.103Z,0
2018-08-04T00:28:58.507Z,0
2018-08-04T00:29:59.904Z,0
2018-08-04T00:31:01.300Z,0
2018-08-04T00:32:02.699Z,0
2018-08-04T00:33:04.094Z,0
2018-08-04T00:34:05.486Z,0
2018-08-04T00:35:06.878Z,0
2018-08-04T00:36:08.276Z,0
2018-08-04T00:37:09.676Z,0
2018-08-04T00:38:11.073Z,0
2018-08-04T00:39:12.469Z,0
2018-08-04T00:40:13.862Z,0
2018-08-04T00:41:15.258Z,0
2018-08-04T00:42:16.660Z,0
2018-08-04T00:43:18.054Z,0
2018-08-04T00:44:19.454Z,0
2018-08-04T00:45:20.858Z,0
2018-08-04T00:46:22.262Z,0
2018-08-04T00:47:24.134Z,0
2018-08-04T00:48:25.531Z,0
2018-08-04T00:49:26.926Z,0
2018-08-04T00:50:28.325Z,0
2018-08-04T00:51:29.722Z,0
2018-08-04T00:52:31.118Z,0
2018-08-04T00:53:32.517Z,0
2018-08-04T00:54:33.912Z,0
2018-08-04T00:55:35.311Z,0
2018-08-04T00:56:36.707Z,0
2018-08-04T00:57:38.099Z,0
2018-08-04T00:58:39.510Z,0
2018-08-04T00:59:40.944Z,0
2018-08-04T01:00:42.370Z,0
2018-08-04T01:01:43.766Z,0
2018-08-04T01:02:45.166Z,0
2018-08-04T01:03:46.566Z,0
2018-08-04T01:04:47.959Z,0
2018-08-04T01:05:49.354Z,0
2018-08-04T01:06:50.777Z,0
2018-08-04T01:07:52.175Z,0
2018-08-04T01:08:53.569Z,0
2018-08-04T01:09:54.966Z,0
2018-08-04T01:10:56.361Z,0
2018-08-04T01:11:57.755Z,0
2018-08-04T01:12:59.152Z,0
2018-08-04T01:14:00.548Z,0
2018-08-04T01:15:01.946Z,0
2018-08-04T01:16:03.350Z,0
2018-08-04T01:17:04.745Z,0
2018-08-04T01:18:06.142Z,0
2018-08-04T01:19:07.541Z,0
2018-08-04T01:20:08.939Z,0
2018-08-04T01:21:10.343Z,0
2018-08-04T01:22:11.748Z,0
2018-08-04T01:23:13.146Z,0
2018-08-04T01:24:14.543Z,0
2018-08-04T01:25:15.956Z,0
2018-08-04T01:26:17.356Z,0
2018-08-04T01:27:18.753Z,0
2018-08-04T01:28:20.149Z,0
2018-08-04T01:29:21.549Z,0
2018-08-04T01:30:22.940Z,0
2018-08-04T01:31:24.337Z,0
2018-08-04T01:32:25.736Z,0
2018-08-04T01:33:27.139Z,0
2018-08-04T01:34:28.539Z,0
2018-08-04T01:35:29.932Z,0
2018-08-04T01:36:31.328Z,0
2018-08-04T01:37:32.724Z,0
2018-08-04T01:38:34.134Z,0
2018-08-04T01:39:35.673Z,0
2018-08-04T01:40:37.071Z,0
2018-08-04T01:41:38.474Z,0
2018-08-04T01:42:39.870Z,0
2018-08-04T01:43:41.265Z,0
2018-08-04T01:44:42.690Z,0
2018-08-04T01:45:44.090Z,0
2018-08-04T01:46:45.487Z,0
2018-08-04T01:47:46.884Z,0
2018-08-04T01:48:48.286Z,0
2018-08-04T01:49:49.686Z,0
2018-08-04T01:50:51.084Z,0
2018-08-04T01:51:52.476Z,0
2018-08-04T01:52:53.875Z,0
2018-08-04T01:53:55.271Z,0
2018-08-04T01:54:56.666Z,0
2018-08-04T01:55:58.061Z,0
2018-08-04T01:56:59.458Z,0
2018-08-04T01:58:00.860Z,0
2018-08-04T01:59:02.286Z,0
2018-08-04T02:00:03.655Z,0
2018-08-04T02:01:05.052Z,0
2018-08-04T02:02:06.448Z,0
2018-08-04T02:03:07.842Z,0
2018-08-04T02:04:09.244Z,0
2018-08-04T02:05:10.655Z,0
2018-08-04T02:06:12.039Z,0
2018-08-04T02:07:13.467Z,0
2018-08-04T02:08:14.823Z,0
2018-08-04T02:09:16.220Z,0
2018-08-04T02:10:17.619Z,0
2018-08-04T02:11:19.015Z,0
2018-08-04T02:12:20.420Z,0
2018-08-04T02:13:21.811Z,0
2018-08-04T02:14:23.204Z,0
2018-08-04T02:15:24.599Z,0
2018-08-04T02:16:26.006Z,0
2018-08-04T02:17:27.406Z,0
2018-08-04T02:18:28.796Z,0
2018-08-04T02:19:30.251Z,0
2018-08-04T02:20:31.644Z,0
2018-08-04T02:21:33.037Z,0
2018-08-04T02:22:34.435Z,0
2018-08-04T02:23:35.831Z,0
2018-08-04T02:24:37.233Z,0
2018-08-04T02:25:38.627Z,0
2018-08-04T02:26:40.027Z,0
2018-08-04T02:27:41.426Z,0
2018-08-04T02:28:42.816Z,0
2018-08-04T02:29:44.209Z,0
2018-08-04T02:30:45.609Z,0
2018-08-04T02:31:47.007Z,0
2018-08-04T02:32:48.404Z,0
2018-08-04T02:33:49.800Z,0
2018-08-04T02:34:51.198Z,0
2018-08-04T02:35:52.592Z,0
2018-08-04T02:36:53.983Z,0
2018-08-04T02:37:55.385Z,0
2018-08-04T02:38:56.781Z,0
2018-08-04T02:39:58.188Z,0
2018-08-04T02:40:59.576Z,0
2018-08-04T02:42:00.970Z,0
2018-08-04T02:43:02.368Z,0
2018-08-04T02:44:03.805Z,0
2018-08-04T02:45:05.211Z,0
2018-08-04T02:46:06.600Z,0
2018-08-04T02:47:07.998Z,0
2018-08-04T02:48:09.395Z,0
2018-08-04T02:49:10.792Z,0
2018-08-04T02:50:12.188Z,0
2018-08-04T02:51:13.587Z,0
2018-08-04T02:52:14.986Z,0
2018-08-04T02:53:16.379Z,0
2018-08-04T02:54:17.773Z,0
2018-08-04T02:55:19.176Z,0
2018-08-04T02:56:20.569Z,0
2018-08-04T02:57:21.961Z,0
2018-08-04T02:58:23.461Z,0
2018-08-04T02:59:24.876Z,0
2018-08-04T03:00:26.274Z,0
2018-08-04T03:01:27.668Z,0
2018-08-04T03:02:29.070Z,0
2018-08-04T03:03:30.461Z,0
2018-08-04T03:04:31.853Z,0
2018-08-04T03:05:33.252Z,0
2018-08-04T03:06:34.648Z,0
2018-08-04T03:07:36.043Z,0
2018-08-04T03:08:37.492Z,0
2018-08-04T03:09:38.840Z,0
2018-08-04T03:10:40.235Z,0
2018-08-04T03:11:41.630Z,0
2018-08-04T03:12:43.035Z,0
2018-08-04T03:13:44.427Z,0
2018-08-04T03:14:45.817Z,0
2018-08-04T03:15:47.215Z,0
2018-08-04T03:16:48.611Z,0
2018-08-04T03:17:50.028Z,0
2018-08-04T03:18:51.429Z,0
2018-08-04T03:19:52.821Z,0
2018-08-04T03:20:54.213Z,0
2018-08-04T03:21:55.612Z,0
2018-08-04T03:22:57.013Z,0
2018-08-04T03:23:58.411Z,0
2018-08-04T03:24:59.805Z,0
2018-08-04T03:26:01.206Z,0
2018-08-04T03:27:02.601Z,0
2018-08-04T03:28:04.000Z,0
2018-08-04T03:29:05.393Z,0
2018-08-04T03:30:06.792Z,0
2018-08-04T03:31:08.193Z,0
2018-08-04T03:32:09.589Z,0
2018-08-04T03:33:10.977Z,4
2018-08-04T03:34:12.369Z,4
2018-08-04T03:35:13.766Z,0
2018-08-04T03:36:15.166Z,0
2018-08-04T03:37:16.565Z,0
2018-08-04T03:38:18.032Z,4
2018-08-04T03:39:19.432Z,4
2018-08-04T03:40:20.835Z,0
2018-08-04T03:41:22.225Z,4
2018-08-04T03:42:23.620Z,4
2018-08-04T03:43:25.025Z,4
2018-08-04T03:44:26.419Z,4
2018-08-04T03:45:27.817Z,8
2018-08-04T03:46:29.209Z,8
2018-08-04T03:47:30.608Z,4
2018-08-04T03:48:32.008Z,8
2018-08-04T03:49:33.409Z,8
2018-08-04T03:50:34.809Z,12
2018-08-04T03:51:36.203Z,12
2018-08-04T03:52:37.607Z,16
2018-08-04T03:53:39.004Z,16
2018-08-04T03:54:40.402Z,20
2018-08-04T03:55:41.799Z,20
2018-08-04T03:56:43.191Z,20
2018-08-04T03:57:44.589Z,24
2018-08-04T03:58:45.987Z,32
2018-08-04T03:59:47.403Z,32
2018-08-04T04:00:48.789Z,36
2018-08-04T04:01:50.180Z,36
2018-08-04T04:02:51.580Z,40
2018-08-04T04:03:52.978Z,44
2018-08-04T04:04:54.374Z,44
2018-08-04T04:05:55.770Z,48
2018-08-04T04:06:57.170Z,48
2018-08-04T04:07:58.567Z,52
2018-08-04T04:08:59.959Z,56
2018-08-04T04:10:01.358Z,60
2018-08-04T04:11:02.754Z,60
2018-08-04T04:12:04.157Z,64
2018-08-04T04:13:05.550Z,68
2018-08-04T04:14:06.968Z,76
2018-08-04T04:15:08.368Z,80
2018-08-04T04:16:09.762Z,84
2018-08-04T04:17:11.163Z,92
2018-08-04T04:18:12.589Z,100
2018-08-04T04:19:13.991Z,108
2018-08-04T04:20:15.389Z,120
2018-08-04T04:21:16.788Z,128
2018-08-04T04:22:18.184Z,140
2018-08-04T04:23:19.579Z,152
2018-08-04T04:24:20.976Z,164
2018-08-04T04:25:22.371Z,180
2018-08-04T04:26:23.768Z,196
2018-08-04T04:27:25.172Z,212
2018-08-04T04:28:26.571Z,224
2018-08-04T04:29:27.971Z,236
2018-08-04T04:30:29.372Z,252
2018-08-04T04:31:30.778Z,264
2018-08-04T04:32:32.177Z,276
2018-08-04T04:33:33.577Z,296
2018-08-04T04:34:34.975Z,316
2018-08-04T04:35:36.375Z,336
2018-08-04T04:36:37.772Z,360
2018-08-04T04:37:39.170Z,380
2018-08-04T04:38:40.569Z,400
2018-08-04T04:39:41.969Z,424
2018-08-04T04:40:43.372Z,440
2018-08-04T04:41:44.774Z,448
2018-08-04T04:42:46.174Z,456
2018-08-04T04:43:47.568Z,456
2018-08-04T04:44:48.972Z,456
2018-08-04T04:45:50.408Z,460
2018-08-04T04:46:51.812Z,468
2018-08-04T04:47:53.212Z,476
2018-08-04T04:48:54.612Z,476
2018-08-04T04:49:56.012Z,476
2018-08-04T04:50:57.433Z,480
2018-08-04T04:51:58.835Z,480
2018-08-04T04:53:00.280Z,484
2018-08-04T04:54:01.649Z,480
2018-08-04T04:55:03.044Z,480
2018-08-04T04:56:04.448Z,484
2018-08-04T04:57:05.856Z,488
2018-08-04T04:58:07.284Z,496
2018-08-04T04:59:08.681Z,508
2018-08-04T05:00:10.087Z,532
2018-08-04T05:01:11.483Z,552
2018-08-04T05:02:12.889Z,572
2018-08-04T05:03:14.297Z,588
2018-08-04T05:04:15.700Z,596
2018-08-04T05:05:17.104Z,612
2018-08-04T05:06:18.500Z,624
2018-08-04T05:07:19.894Z,640
2018-08-04T05:08:21.291Z,656
2018-08-04T05:09:22.693Z,672
2018-08-04T05:10:24.094Z,692
2018-08-04T05:11:25.506Z,712
2018-08-04T05:12:26.892Z,728
2018-08-04T05:13:28.291Z,736
2018-08-04T05:14:29.693Z,744
2018-08-04T05:15:31.095Z,740
2018-08-04T05:16:32.489Z,732
2018-08-04T05:17:33.906Z,732
2018-08-04T05:18:35.303Z,732
2018-08-04T05:19:36.722Z,744
2018-08-04T05:20:38.128Z,752
2018-08-04T05:21:39.534Z,764
2018-08-04T05:22:40.921Z,780
2018-08-04T05:23:42.318Z,804
2018-08-04T05:24:43.767Z,820
2018-08-04T05:25:45.171Z,844
2018-08-04T05:26:46.567Z,864
2018-08-04T05:27:47.964Z,892
2018-08-04T05:28:49.365Z,932
2018-08-04T05:29:50.983Z,960
2018-08-04T05:30:52.378Z,976
2018-08-04T05:31:54.060Z,988
2018-08-04T05:32:55.451Z,1000
2018-08-04T05:33:56.845Z,1012
2018-08-04T05:34:58.243Z,1024
2018-08-04T05:35:59.684Z,1040
2018-08-04T05:37:01.089Z,1040
2018-08-04T05:38:02.494Z,1052
2018-08-04T05:39:03.898Z,1064
2018-08-04T05:40:05.305Z,1084
2018-08-04T05:41:06.701Z,1100
2018-08-04T05:42:08.102Z,1116
2018-08-04T05:43:09.517Z,1136
2018-08-04T05:44:10.907Z,1136
2018-08-04T05:45:12.315Z,1144
2018-08-04T05:46:13.723Z,1144
2018-08-04T05:47:15.125Z,1132
2018-08-04T05:48:16.525Z,1132
2018-08-04T05:49:17.925Z,1140
2018-08-04T05:50:19.323Z,1136
2018-08-04T05:51:20.779Z,1124
2018-08-04T05:52:22.277Z,1136
2018-08-04T05:53:23.703Z,1156
2018-08-04T05:54:25.103Z,1192
2018-08-04T05:55:26.521Z,1240
2018-08-04T05:56:27.943Z,1292
2018-08-04T05:57:29.348Z,1340
2018-08-04T05:58:30.785Z,1364
2018-08-04T05:59:32.217Z,1396
2018-08-04T06:00:33.656Z,1436
2018-08-04T06:01:35.033Z,1476
2018-08-04T06:02:36.431Z,1524
2018-08-04T06:03:37.833Z,1564
2018-08-04T06:04:39.236Z,1604
2018-08-04T06:05:40.632Z,1624
2018-08-04T06:06:42.043Z,1628
2018-08-04T06:07:43.445Z,1632
2018-08-04T06:08:44.871Z,1648
2018-08-04T06:09:46.279Z,1632
2018-08-04T06:10:47.670Z,1612
2018-08-04T06:11:49.073Z,1612
2018-08-04T06:12:50.467Z,1628
2018-08-04T06:13:51.870Z,1656
2018-08-04T06:14:53.273Z,1696
2018-08-04T06:15:54.797Z,1720
2018-08-04T06:16:56.207Z,1752
2018-08-04T06:17:57.602Z,1792
2018-08-04T06:18:59.005Z,1832
2018-08-04T06:20:00.405Z,1884
2018-08-04T06:21:01.811Z,1928
2018-08-04T06:22:03.220Z,1976
2018-08-04T06:23:04.616Z,2000
2018-08-04T06:24:06.030Z,1980
2018-08-04T06:25:07.428Z,1960
2018-08-04T06:26:08.831Z,1932
2018-08-04T06:27:10.232Z,1908
2018-08-04T06:28:11.656Z,1892
2018-08-04T06:29:13.212Z,1876
2018-08-04T06:30:14.648Z,1868
2018-08-04T06:31:16.114Z,1856
2018-08-04T06:32:17.520Z,1852
2018-08-04T06:33:18.919Z,1848
2018-08-04T06:34:20.364Z,1796
2018-08-04T06:35:21.775Z,1768
2018-08-04T06:36:23.177Z,1728
2018-08-04T06:37:24.575Z,1712
2018-08-04T06:38:26.005Z,1736
2018-08-04T06:39:27.408Z,1808
2018-08-04T06:40:28.836Z,1876
2018-08-04T06:41:30.249Z,1976
2018-08-04T06:42:31.699Z,2104
2018-08-04T06:43:33.096Z,2212
2018-08-04T06:44:34.505Z,2332
2018-08-04T06:45:35.904Z,2536
2018-08-04T06:46:37.402Z,2620
2018-08-04T06:47:38.803Z,2748
2018-08-04T06:48:40.204Z,2796
2018-08-04T06:49:41.603Z,2960
2018-08-04T06:50:43.001Z,2972
2018-08-04T06:51:44.405Z,3104
2018-08-04T06:52:45.864Z,3084
2018-08-04T06:53:47.201Z,2988
2018-08-04T06:54:48.681Z,2800
2018-08-04T06:55:50.090Z,2672
2018-08-04T06:56:51.490Z,2588
2018-08-04T06:57:52.890Z,2472
2018-08-04T06:58:54.292Z,2444
2018-08-04T06:59:55.692Z,2404
2018-08-04T07:00:57.092Z,2396
2018-08-04T07:01:58.496Z,2388
2018-08-04T07:02:59.904Z,2324
2018-08-04T07:04:01.310Z,2260
2018-08-04T07:05:02.722Z,2224
2018-08-04T07:06:04.212Z,2156
2018-08-04T07:07:05.610Z,2116
2018-08-04T07:08:07.007Z,2064
2018-08-04T07:09:08.413Z,1988
2018-08-04T07:10:09.816Z,1944
2018-08-04T07:11:11.221Z,1920
2018-08-04T07:12:12.628Z,1900
2018-08-04T07:13:14.027Z,1892
2018-08-04T07:14:15.422Z,1880
2018-08-04T07:15:16.824Z,1936
2018-08-04T07:16:18.225Z,2192
2018-08-04T07:17:19.624Z,2356
2018-08-04T07:18:21.039Z,2524
2018-08-04T07:19:22.436Z,2616
2018-08-04T07:20:23.838Z,2596
2018-08-04T07:21:25.235Z,2692
2018-08-04T07:22:26.640Z,2696
2018-08-04T07:23:28.108Z,2704
2018-08-04T07:24:29.532Z,2644
2018-08-04T07:25:30.955Z,2568
2018-08-04T07:26:32.360Z,2508
2018-08-04T07:27:33.761Z,2492
2018-08-04T07:28:35.166Z,2556
2018-08-04T07:29:36.649Z,2640
2018-08-04T07:30:38.058Z,2760
2018-08-04T07:31:39.456Z,2824
2018-08-04T07:32:40.862Z,2784
2018-08-04T07:33:42.263Z,2776
2018-08-04T07:34:43.718Z,2780
2018-08-04T07:35:45.162Z,2668
2018-08-04T07:36:46.687Z,2776
2018-08-04T07:37:48.146Z,2852
2018-08-04T07:38:49.549Z,3020
2018-08-04T07:39:51.103Z,3072
2018-08-04T07:40:52.507Z,3160
2018-08-04T07:41:53.906Z,3152
2018-08-04T07:42:55.334Z,3108
2018-08-04T07:43:56.796Z,3024
2018-08-04T07:44:58.256Z,2888
2018-08-04T07:45:59.655Z,3020
2018-08-04T07:47:01.057Z,3104
2018-08-04T07:48:02.462Z,3148
2018-08-04T07:49:03.965Z,3388
2018-08-04T07:50:05.383Z,3564
2018-08-04T07:51:06.727Z,3620
2018-08-04T07:52:08.140Z,3304
2018-08-04T07:53:09.544Z,3292
2018-08-04T07:54:10.951Z,3124
2018-08-04T07:55:12.357Z,2996
2018-08-04T07:56:13.780Z,2960
2018-08-04T07:57:15.201Z,2912
2018-08-04T07:58:16.613Z,3012
2018-08-04T07:59:18.023Z,3244
2018-08-04T08:00:19.435Z,3384
2018-08-04T08:01:20.901Z,3360
2018-08-04T08:02:22.296Z,3192
2018-08-04T08:03:23.751Z,3208
2018-08-04T08:04:25.148Z,3240
2018-08-04T08:05:26.561Z,3152
2018-08-04T08:06:27.947Z,3412
2018-08-04T08:07:29.348Z,3472
2018-08-04T08:08:30.751Z,3540
2018-08-04T08:09:32.161Z,3524
2018-08-04T08:10:33.619Z,3396
2018-08-04T08:11:35.011Z,3152
2018-08-04T08:12:36.535Z,3248
2018-08-04T08:13:38.200Z,3232
2018-08-04T08:14:39.645Z,3368
2018-08-04T08:15:41.070Z,3468
2018-08-04T08:16:42.480Z,3596
2018-08-04T08:17:43.910Z,3712
2018-08-04T08:18:45.635Z,3724
2018-08-04T08:19:47.089Z,3784
2018-08-04T08:20:48.529Z,3884
2018-08-04T08:21:49.931Z,3848
2018-08-04T08:22:51.406Z,3848
2018-08-04T08:23:52.812Z,3924
2018-08-04T08:24:54.418Z,3940
2018-08-04T08:25:55.824Z,3940
2018-08-04T08:26:57.269Z,3948
2018-08-04T08:27:58.689Z,3952
2018-08-04T08:29:00.088Z,3968
2018-08-04T08:30:01.506Z,3976
2018-08-04T08:31:02.916Z,3940
2018-08-04T08:32:04.339Z,4008
2018-08-04T08:33:05.771Z,4068
2018-08-04T08:34:07.171Z,4088
2018-08-04T08:35:08.578Z,4116
2018-08-04T08:36:09.992Z,4124
2018-08-04T08:37:11.395Z,4160
2018-08-04T08:38:12.832Z,4184
2018-08-04T08:39:14.262Z,4204
2018-08-04T08:40:15.659Z,4236
2018-08-04T08:41:17.067Z,4264
2018-08-04T08:42:18.515Z,4288
2018-08-04T08:43:19.917Z,4336
2018-08-04T08:44:21.335Z,4356
2018-08-04T08:45:22.745Z,4392
2018-08-04T08:46:24.150Z,4412
2018-08-04T08:47:26.077Z,4444
2018-08-04T08:48:27.503Z,4460
2018-08-04T08:49:28.907Z,4512
2018-08-04T08:50:30.799Z,4536
2018-08-04T08:51:32.230Z,4564
2018-08-04T08:52:33.661Z,4592
2018-08-04T08:53:35.120Z,4636
2018-08-04T08:54:36.479Z,4652
2018-08-04T08:55:37.877Z,4692
2018-08-04T08:56:39.288Z,4716
2018-08-04T08:57:40.694Z,4752
2018-08-04T08:58:42.094Z,4784
2018-08-04T08:59:43.505Z,4812
2018-08-04T09:00:44.909Z,4844
2018-08-04T09:01:46.310Z,4876
2018-08-04T09:02:47.758Z,4912
2018-08-04T09:03:49.162Z,4936
2018-08-04T09:04:50.566Z,4976
2018-08-04T09:05:51.966Z,5004
2018-08-04T09:06:53.369Z,5036
2018-08-04T09:07:54.776Z,5072
2018-08-04T09:08:56.237Z,5116
2018-08-04T09:09:57.648Z,5168
2018-08-04T09:10:59.045Z,5212
2018-08-04T09:12:00.457Z,5236
2018-08-04T09:13:01.920Z,5256
2018-08-04T09:14:03.295Z,5320
2018-08-04T09:15:04.709Z,5356
2018-08-04T09:16:06.111Z,5380
2018-08-04T09:17:07.514Z,5408
2018-08-04T09:18:08.918Z,5452
2018-08-04T09:19:10.320Z,5484
2018-08-04T09:20:11.749Z,5512
2018-08-04T09:21:13.151Z,5552
2018-08-04T09:22:14.560Z,5604
2018-08-04T09:23:16.003Z,5644
2018-08-04T09:24:17.408Z,5684
2018-08-04T09:25:18.820Z,5752
2018-08-04T09:26:21.791Z,5768
2018-08-04T09:27:23.280Z,5796
2018-08-04T09:28:24.652Z,5796
2018-08-04T09:29:26.057Z,5820
2018-08-04T09:30:27.486Z,5840
2018-08-04T09:31:28.918Z,5888
2018-08-04T09:32:30.332Z,5944
2018-08-04T09:33:31.757Z,5980
2018-08-04T09:34:33.163Z,6020
2018-08-04T09:35:34.575Z,6080
2018-08-04T09:36:35.988Z,6096
2018-08-04T09:37:37.394Z,6132
2018-08-04T09:38:38.802Z,6176
2018-08-04T09:39:40.239Z,6208
2018-08-04T09:40:41.682Z,6276
2018-08-04T09:41:43.087Z,6344
2018-08-04T09:42:44.491Z,6404
2018-08-04T09:43:45.945Z,6484
2018-08-04T09:44:47.319Z,6532
2018-08-04T09:45:48.722Z,6624
2018-08-04T09:46:50.123Z,6644
2018-08-04T09:47:51.537Z,6780
2018-08-04T09:48:52.933Z,6792
2018-08-04T09:49:54.375Z,6848
2018-08-04T09:50:55.803Z,6916
2018-08-04T09:51:57.209Z,6984
2018-08-04T09:52:58.610Z,7032
2018-08-04T09:54:00.015Z,7076
2018-08-04T09:55:01.428Z,7136
2018-08-04T09:56:02.832Z,7204
2018-08-04T09:57:04.285Z,7292
2018-08-04T09:58:05.694Z,7384
2018-08-04T09:59:07.094Z,7520
2018-08-04T10:00:08.512Z,7540
2018-08-04T10:01:09.903Z,7572
2018-08-04T10:02:11.313Z,7684
2018-08-04T10:03:12.714Z,7724
2018-08-04T10:04:14.266Z,7820
2018-08-04T10:05:15.696Z,7936
2018-08-04T10:06:17.146Z,8028
2018-08-04T10:07:18.551Z,8128
2018-08-04T10:08:20.011Z,8196
2018-08-04T10:09:21.423Z,8340
2018-08-04T10:10:22.830Z,8400
2018-08-04T10:11:24.252Z,8452
2018-08-04T10:12:25.809Z,8592
2018-08-04T10:13:27.212Z,8672
2018-08-04T10:14:28.618Z,8792
2018-08-04T10:15:30.022Z,8928
2018-08-04T10:16:31.427Z,8956
2018-08-04T10:17:32.844Z,9124
2018-08-04T10:18:34.351Z,9200
2018-08-04T10:19:35.767Z,9268
2018-08-04T10:20:37.178Z,9432
2018-08-04T10:21:38.634Z,9560
2018-08-04T10:22:40.062Z,9780
2018-08-04T10:23:41.468Z,9932
2018-08-04T10:24:42.876Z,9996
2018-08-04T10:25:44.282Z,10032
2018-08-04T10:26:45.808Z,10092
2018-08-04T10:27:47.295Z,10256
2018-08-04T10:28:48.696Z,10496
2018-08-04T10:29:50.113Z,10656
2018-08-04T10:30:51.511Z,10832
2018-08-04T10:31:53.085Z,10980
2018-08-04T10:32:54.463Z,11196
2018-08-04T10:33:55.871Z,11368
2018-08-04T10:34:57.283Z,11528
2018-08-04T10:35:58.691Z,11892
2018-08-04T10:37:00.094Z,11824
2018-08-04T10:38:01.500Z,12032
2018-08-04T10:39:02.906Z,12332
2018-08-04T10:40:04.312Z,12680
2018-08-04T10:41:05.723Z,13088
2018-08-04T10:42:07.221Z,13256
2018-08-04T10:43:08.671Z,13428
2018-08-04T10:44:10.080Z,13860
2018-08-04T10:45:11.490Z,14224
2018-08-04T10:46:12.911Z,14556
2018-08-04T10:47:14.317Z,15004
2018-08-04T10:48:15.782Z,15860
2018-08-04T10:49:17.185Z,16600
2018-08-04T10:50:18.593Z,17408
2018-08-04T10:51:19.998Z,18368
2018-08-04T10:52:21.408Z,19872
2018-08-04T10:53:22.821Z,21632
2018-08-04T10:54:24.327Z,23744
2018-08-04T10:55:25.737Z,26560
2018-08-04T10:56:27.149Z,29600
2018-08-04T10:57:28.555Z,32512
2018-08-04T10:58:29.963Z,34304
2018-08-04T10:59:31.368Z,36416
2018-08-04T11:00:32.780Z,37504
2018-08-04T11:01:34.191Z,38208
2018-08-04T11:02:35.612Z,38496
2018-08-04T11:03:37.014Z,38848
2018-08-04T11:04:38.421Z,38592
2018-08-04T11:05:39.832Z,38048
2018-08-04T11:06:41.236Z,36672
2018-08-04T11:07:42.648Z,35712
2018-08-04T11:08:44.064Z,34784
2018-08-04T11:09:45.476Z,33568
2018-08-04T11:10:46.885Z,31712
2018-08-04T11:11:48.293Z,30176
2018-08-04T11:12:49.758Z,25216
2018-08-04T11:13:51.169Z,27392
2018-08-04T11:14:52.584Z,27392
2018-08-04T11:15:54.000Z,28192
2018-08-04T11:16:55.769Z,27744
2018-08-04T11:17:57.219Z,26944
2018-08-04T11:18:58.644Z,25664
2018-08-04T11:20:00.060Z,25632
2018-08-04T11:21:01.632Z,24992
2018-08-04T11:22:03.093Z,24608
2018-08-04T11:23:04.504Z,24896
2018-08-04T11:24:05.941Z,24864
2018-08-04T11:25:07.334Z,24192
2018-08-04T11:26:08.777Z,24064
2018-08-04T11:27:10.203Z,24192
2018-08-04T11:28:11.637Z,23936
2018-08-04T11:29:13.046Z,23904
2018-08-04T11:30:14.480Z,23584
2018-08-04T11:31:15.940Z,23168
2018-08-04T11:32:17.395Z,23104
2018-08-04T11:33:18.822Z,22624
2018-08-04T11:34:20.272Z,23008
2018-08-04T11:35:21.681Z,22944
2018-08-04T11:36:23.098Z,22752
2018-08-04T11:37:24.515Z,22624
2018-08-04T11:38:25.962Z,22496
2018-08-04T11:39:27.376Z,22240
2018-08-04T11:40:28.829Z,21888
2018-08-04T11:41:30.237Z,21280
2018-08-04T11:42:31.655Z,21632
2018-08-04T11:43:33.071Z,21184
2018-08-04T11:44:34.487Z,21696
2018-08-04T11:45:35.970Z,21664
2018-08-04T11:46:37.311Z,21632
2018-08-04T11:47:38.721Z,21504
2018-08-04T11:48:40.128Z,20512
2018-08-04T11:49:41.542Z,20896
2018-08-04T11:50:42.957Z,21024
2018-08-04T11:51:44.374Z,21248
2018-08-04T11:52:45.790Z,21376
2018-08-04T11:53:47.193Z,20576
2018-08-04T11:54:48.602Z,20704
2018-08-04T11:55:50.030Z,20352
2018-08-04T11:56:51.429Z,20736
2018-08-04T11:57:52.848Z,21120
2018-08-04T11:58:54.262Z,20416
2018-08-04T11:59:55.678Z,20032
2018-08-04T12:00:57.249Z,19296
2018-08-04T12:01:58.725Z,19456
2018-08-04T12:03:00.097Z,18624
2018-08-04T12:04:02.573Z,19072
2018-08-04T12:05:03.991Z,18848
2018-08-04T12:06:05.406Z,18176
2018-08-04T12:07:06.815Z,19104
2018-08-04T12:08:08.224Z,19104
2018-08-04T12:09:09.638Z,19872
2018-08-04T12:10:11.050Z,19712
2018-08-04T12:11:12.466Z,20800
2018-08-04T12:12:13.999Z,19488
2018-08-04T12:13:15.265Z,19040
2018-08-04T12:14:16.678Z,17696
2018-08-04T12:15:18.098Z,16960
2018-08-04T12:16:19.506Z,17728
2018-08-04T12:17:20.920Z,18048
2018-08-04T12:18:22.329Z,17728
2018-08-04T12:19:23.743Z,19168
2018-08-04T12:20:25.150Z,20768
2018-08-04T12:21:26.565Z,20896
2018-08-04T12:22:27.977Z,19968
2018-08-04T12:23:29.391Z,18624
2018-08-04T12:24:30.797Z,19904
2018-08-04T12:25:32.213Z,21344
2018-08-04T12:26:33.624Z,21760
2018-08-04T12:27:35.029Z,21824
2018-08-04T12:28:36.460Z,21696
2018-08-04T12:29:37.846Z,18432
2018-08-04T12:30:39.259Z,16256
2018-08-04T12:31:40.672Z,17056
2018-08-04T12:32:42.084Z,18432
2018-08-04T12:33:43.495Z,18944
2018-08-04T12:34:44.903Z,19744
2018-08-04T12:35:46.320Z,19680
2018-08-04T12:36:47.733Z,20320
2018-08-04T12:37:49.143Z,19584
2018-08-04T12:38:50.655Z,21312
2018-08-04T12:39:52.093Z,21184
2018-08-04T12:40:53.503Z,21600
2018-08-04T12:41:54.912Z,21344
2018-08-04T12:42:56.328Z,21216
2018-08-04T12:43:57.741Z,21248
2018-08-04T12:44:59.148Z,22144
2018-08-04T12:46:00.566Z,21632
2018-08-04T12:47:01.968Z,21952
2018-08-04T12:48:03.387Z,21536
2018-08-04T12:49:04.800Z,20896
2018-08-04T12:50:06.587Z,18272
2018-08-04T12:51:07.989Z,20256
2018-08-04T12:52:09.403Z,19232
2018-08-04T12:53:10.813Z,20096
2018-08-04T12:54:12.227Z,21792
2018-08-04T12:55:13.639Z,22144
2018-08-04T12:56:15.050Z,21312
2018-08-04T12:57:16.462Z,21216
2018-08-04T12:58:17.869Z,19712
2018-08-04T12:59:19.279Z,19616
2018-08-04T13:00:20.717Z,20448
2018-08-04T13:01:22.107Z,18944
2018-08-04T13:02:23.518Z,19232
2018-08-04T13:03:24.935Z,18752
2018-08-04T13:04:26.348Z,18080
2018-08-04T13:05:27.772Z,18208
2018-08-04T13:06:29.175Z,20480
2018-08-04T13:07:30.580Z,20224
2018-08-04T13:08:31.992Z,18240
2018-08-04T13:09:33.401Z,19328
2018-08-04T13:10:34.812Z,19776
2018-08-04T13:11:36.228Z,19936
2018-08-04T13:12:37.635Z,20256
2018-08-04T13:13:39.040Z,19648
2018-08-04T13:14:40.452Z,20000
2018-08-04T13:15:41.860Z,21056
2018-08-04T13:16:43.274Z,20064
2018-08-04T13:17:44.752Z,20352
2018-08-04T13:18:46.230Z,20160
2018-08-04T13:19:47.773Z,19584
2018-08-04T13:20:49.185Z,20960
2018-08-04T13:21:50.607Z,19776
2018-08-04T13:22:52.013Z,19968
2018-08-04T13:23:53.424Z,20032
2018-08-04T13:24:54.840Z,20192
2018-08-04T13:25:56.252Z,19904
2018-08-04T13:26:57.658Z,19328
2018-08-04T13:27:59.069Z,19648
2018-08-04T13:29:00.510Z,19104
2018-08-04T13:30:01.934Z,19040
2018-08-04T13:31:03.443Z,18816
2018-08-04T13:32:04.913Z,20000
2018-08-04T13:33:06.379Z,19648
2018-08-04T13:34:07.795Z,20160
2018-08-04T13:35:09.203Z,20000
2018-08-04T13:36:10.626Z,19872
2018-08-04T13:37:12.027Z,20000
2018-08-04T13:38:13.499Z,19712
2018-08-04T13:39:14.918Z,19488
2018-08-04T13:40:16.324Z,19808
2018-08-04T13:41:17.855Z,20000
2018-08-04T13:42:19.775Z,19488
2018-08-04T13:43:21.233Z,18784
2018-08-04T13:44:22.668Z,16704
2018-08-04T13:45:24.080Z,18048
2018-08-04T13:46:25.492Z,18304
2018-08-04T13:47:26.905Z,18976
2018-08-04T13:48:28.317Z,19328
2018-08-04T13:49:29.724Z,19104
2018-08-04T13:50:31.224Z,19072
2018-08-04T13:51:32.830Z,17824
2018-08-04T13:52:34.434Z,18432
2018-08-04T13:53:35.817Z,17632
2018-08-04T13:54:37.228Z,18560
2018-08-04T13:55:38.723Z,18752
2018-08-04T13:56:40.124Z,18304
2018-08-04T13:57:41.530Z,18528